sensor_id;sensor_type;location;lat;lon;timestamp;P1;durP1;ratioP1;P2;durP2;ratioP2
77016;SDS011;65949;53.132;17.930;2023-04-06T00:02:09;84.80;;;26.90;;
77016;SDS011;65949;53.132;17.930;2023-04-06T00:04:36;83.50;;;27.70;;
77016;SDS011;65949;53.132;17.930;2023-04-06T00:07:03;72.10;;;23.80;;
77016;SDS011;65949;53.132;17.930;2023-04-06T00:09:29;60.30;;;20.80;;
77016;SDS011;65949;53.132;17.930;2023-04-06T00:11:56;66.70;;;21.70;;
77016;SDS011;65949;53.132;17.930;2023-04-06T00:14:24;58.70;;;22.10;;
77016;SDS011;65949;53.132;17.930;2023-04-06T00:16:50;73.00;;;29.00;;
77016;SDS011;65949;53.132;17.930;2023-04-06T00:19:17;83.10;;;31.50;;
77016;SDS011;65949;53.132;17.930;2023-04-06T00:21:43;72.90;;;28.30;;
77016;SDS011;65949;53.132;17.930;2023-04-06T00:24:10;64.90;;;23.60;;
77016;SDS011;65949;53.132;17.930;2023-04-06T00:26:37;62.40;;;23.50;;
77016;SDS011;65949;53.132;17.930;2023-04-06T00:29:04;66.30;;;22.10;;
77016;SDS011;65949;53.132;17.930;2023-04-06T00:31:30;62.50;;;22.90;;
77016;SDS011;65949;53.132;17.930;2023-04-06T00:33:57;62.30;;;22.10;;
77016;SDS011;65949;53.132;17.930;2023-04-06T00:36:24;61.50;;;22.40;;
77016;SDS011;65949;53.132;17.930;2023-04-06T00:38:51;65.40;;;22.80;;
77016;SDS011;65949;53.132;17.930;2023-04-06T00:41:18;70.70;;;23.20;;
77016;SDS011;65949;53.132;17.930;2023-04-06T00:43:47;67.00;;;22.20;;
77016;SDS011;65949;53.132;17.930;2023-04-06T00:46:13;65.20;;;22.70;;
77016;SDS011;65949;53.132;17.930;2023-04-06T00:48:40;63.90;;;21.20;;
77016;SDS011;65949;53.132;17.930;2023-04-06T00:51:07;57.90;;;20.20;;
77016;SDS011;65949;53.132;17.930;2023-04-06T00:53:33;58.80;;;20.60;;
77016;SDS011;65949;53.132;17.930;2023-04-06T00:56:00;57.00;;;21.20;;
77016;SDS011;65949;53.132;17.930;2023-04-06T00:58:29;56.70;;;20.40;;
77016;SDS011;65949;53.132;17.930;2023-04-06T01:01:01;64.30;;;20.90;;
77016;SDS011;65949;53.132;17.930;2023-04-06T01:03:28;70.90;;;21.80;;
77016;SDS011;65949;53.132;17.930;2023-04-06T01:05:55;66.50;;;23.10;;
77016;SDS011;65949;53.132;17.930;2023-04-06T01:08:27;63.20;;;21.10;;
77016;SDS011;65949;53.132;17.930;2023-04-06T01:10:59;60.30;;;19.90;;
77016;SDS011;65949;53.132;17.930;2023-04-06T01:13:29;55.50;;;18.50;;
77016;SDS011;65949;53.132;17.930;2023-04-06T01:16:00;56.80;;;20.60;;
77016;SDS011;65949;53.132;17.930;2023-04-06T01:18:37;62.90;;;20.00;;
77016;SDS011;65949;53.132;17.930;2023-04-06T01:21:12;59.00;;;20.50;;
77016;SDS011;65949;53.132;17.930;2023-04-06T01:23:45;57.40;;;19.60;;
77016;SDS011;65949;53.132;17.930;2023-04-06T01:26:13;56.80;;;18.90;;
77016;SDS011;65949;53.132;17.930;2023-04-06T01:28:40;68.90;;;24.60;;
77016;SDS011;65949;53.132;17.930;2023-04-06T01:31:16;82.40;;;32.00;;
77016;SDS011;65949;53.132;17.930;2023-04-06T01:33:49;90.90;;;34.70;;
77016;SDS011;65949;53.132;17.930;2023-04-06T01:36:19;93.20;;;33.70;;
77016;SDS011;65949;53.132;17.930;2023-04-06T01:38:50;78.80;;;29.40;;
77016;SDS011;65949;53.132;17.930;2023-04-06T01:41:18;74.20;;;24.70;;
77016;SDS011;65949;53.132;17.930;2023-04-06T01:43:48;74.00;;;25.40;;
77016;SDS011;65949;53.132;17.930;2023-04-06T01:46:15;73.30;;;25.10;;
77016;SDS011;65949;53.132;17.930;2023-04-06T01:48:43;74.30;;;26.30;;
77016;SDS011;65949;53.132;17.930;2023-04-06T01:51:17;76.50;;;25.20;;
77016;SDS011;65949;53.132;17.930;2023-04-06T01:53:54;72.10;;;23.90;;
77016;SDS011;65949;53.132;17.930;2023-04-06T01:56:23;70.30;;;24.20;;
77016;SDS011;65949;53.132;17.930;2023-04-06T01:59:19;74.40;;;24.20;;
77016;SDS011;65949;53.132;17.930;2023-04-06T02:01:46;70.70;;;22.40;;
77016;SDS011;65949;53.132;17.930;2023-04-06T02:04:12;60.60;;;20.30;;
77016;SDS011;65949;53.132;17.930;2023-04-06T02:06:41;60.00;;;20.20;;
77016;SDS011;65949;53.132;17.930;2023-04-06T02:09:08;58.20;;;20.70;;
77016;SDS011;65949;53.132;17.930;2023-04-06T02:11:35;60.60;;;19.50;;
77016;SDS011;65949;53.132;17.930;2023-04-06T02:14:02;61.80;;;20.20;;
77016;SDS011;65949;53.132;17.930;2023-04-06T02:16:31;54.00;;;18.60;;
77016;SDS011;65949;53.132;17.930;2023-04-06T02:18:58;55.90;;;18.70;;
77016;SDS011;65949;53.132;17.930;2023-04-06T02:21:25;51.70;;;17.20;;
77016;SDS011;65949;53.132;17.930;2023-04-06T02:23:51;56.90;;;19.30;;
77016;SDS011;65949;53.132;17.930;2023-04-06T02:26:18;55.30;;;19.50;;
77016;SDS011;65949;53.132;17.930;2023-04-06T02:28:47;51.90;;;18.50;;
77016;SDS011;65949;53.132;17.930;2023-04-06T02:31:14;53.10;;;18.80;;
77016;SDS011;65949;53.132;17.930;2023-04-06T02:33:42;59.10;;;17.20;;
77016;SDS011;65949;53.132;17.930;2023-04-06T02:36:09;48.70;;;15.40;;
77016;SDS011;65949;53.132;17.930;2023-04-06T02:38:36;55.10;;;19.40;;
77016;SDS011;65949;53.132;17.930;2023-04-06T02:41:03;65.50;;;25.50;;
77016;SDS011;65949;53.132;17.930;2023-04-06T02:43:29;77.60;;;30.00;;
77016;SDS011;65949;53.132;17.930;2023-04-06T02:46:06;70.20;;;27.80;;
77016;SDS011;65949;53.132;17.930;2023-04-06T02:48:35;66.10;;;25.30;;
77016;SDS011;65949;53.132;17.930;2023-04-06T02:51:03;57.90;;;22.70;;
77016;SDS011;65949;53.132;17.930;2023-04-06T02:53:30;51.60;;;19.30;;
77016;SDS011;65949;53.132;17.930;2023-04-06T02:55:56;55.40;;;19.90;;
77016;SDS011;65949;53.132;17.930;2023-04-06T02:58:25;52.60;;;19.20;;
77016;SDS011;65949;53.132;17.930;2023-04-06T03:00:53;51.90;;;19.30;;
77016;SDS011;65949;53.132;17.930;2023-04-06T03:03:20;49.10;;;18.70;;
77016;SDS011;65949;53.132;17.930;2023-04-06T03:05:48;46.20;;;19.30;;
77016;SDS011;65949;53.132;17.930;2023-04-06T03:08:14;47.90;;;17.00;;
77016;SDS011;65949;53.132;17.930;2023-04-06T03:10:43;44.90;;;16.40;;
77016;SDS011;65949;53.132;17.930;2023-04-06T03:13:10;49.50;;;15.70;;
77016;SDS011;65949;53.132;17.930;2023-04-06T03:15:46;47.10;;;15.20;;
77016;SDS011;65949;53.132;17.930;2023-04-06T03:18:17;53.80;;;16.40;;
77016;SDS011;65949;53.132;17.930;2023-04-06T03:20:48;49.00;;;16.10;;
77016;SDS011;65949;53.132;17.930;2023-04-06T03:23:15;54.20;;;16.90;;
77016;SDS011;65949;53.132;17.930;2023-04-06T03:25:43;55.50;;;17.80;;
77016;SDS011;65949;53.132;17.930;2023-04-06T03:28:12;51.20;;;18.00;;
77016;SDS011;65949;53.132;17.930;2023-04-06T03:30:46;45.30;;;14.70;;
77016;SDS011;65949;53.132;17.930;2023-04-06T03:33:14;64.10;;;17.30;;
77016;SDS011;65949;53.132;17.930;2023-04-06T03:35:48;55.00;;;16.10;;
77016;SDS011;65949;53.132;17.930;2023-04-06T03:38:14;47.00;;;15.90;;
77016;SDS011;65949;53.132;17.930;2023-04-06T03:40:41;43.00;;;14.50;;
77016;SDS011;65949;53.132;17.930;2023-04-06T03:43:08;63.10;;;20.00;;
77016;SDS011;65949;53.132;17.930;2023-04-06T03:45:36;70.00;;;28.40;;
77016;SDS011;65949;53.132;17.930;2023-04-06T03:48:03;73.70;;;28.10;;
77016;SDS011;65949;53.132;17.930;2023-04-06T03:50:30;72.80;;;25.60;;
77016;SDS011;65949;53.132;17.930;2023-04-06T03:52:57;65.70;;;24.60;;
77016;SDS011;65949;53.132;17.930;2023-04-06T03:55:24;63.40;;;23.80;;
77016;SDS011;65949;53.132;17.930;2023-04-06T03:57:50;68.50;;;23.30;;
77016;SDS011;65949;53.132;17.930;2023-04-06T04:00:18;62.30;;;23.50;;
77016;SDS011;65949;53.132;17.930;2023-04-06T04:02:44;59.90;;;22.50;;
77016;SDS011;65949;53.132;17.930;2023-04-06T04:05:11;67.00;;;23.10;;
77016;SDS011;65949;53.132;17.930;2023-04-06T04:07:37;59.40;;;21.80;;
77016;SDS011;65949;53.132;17.930;2023-04-06T04:10:06;57.70;;;21.10;;
77016;SDS011;65949;53.132;17.930;2023-04-06T04:12:33;56.50;;;19.00;;
77016;SDS011;65949;53.132;17.930;2023-04-06T04:15:00;51.80;;;19.10;;
77016;SDS011;65949;53.132;17.930;2023-04-06T04:17:27;55.70;;;19.20;;
77016;SDS011;65949;53.132;17.930;2023-04-06T04:19:54;56.80;;;18.20;;
77016;SDS011;65949;53.132;17.930;2023-04-06T04:22:20;58.90;;;19.40;;
77016;SDS011;65949;53.132;17.930;2023-04-06T04:24:47;57.20;;;19.60;;
77016;SDS011;65949;53.132;17.930;2023-04-06T04:27:14;55.00;;;18.00;;
77016;SDS011;65949;53.132;17.930;2023-04-06T04:29:41;54.00;;;18.80;;
77016;SDS011;65949;53.132;17.930;2023-04-06T04:32:10;50.90;;;18.30;;
77016;SDS011;65949;53.132;17.930;2023-04-06T04:34:37;54.00;;;19.60;;
77016;SDS011;65949;53.132;17.930;2023-04-06T04:37:07;53.60;;;18.10;;
77016;SDS011;65949;53.132;17.930;2023-04-06T04:39:50;53.60;;;18.30;;
77016;SDS011;65949;53.132;17.930;2023-04-06T04:42:17;48.60;;;18.40;;
77016;SDS011;65949;53.132;17.930;2023-04-06T04:44:47;51.20;;;18.20;;
77016;SDS011;65949;53.132;17.930;2023-04-06T04:47:17;56.10;;;19.70;;
77016;SDS011;65949;53.132;17.930;2023-04-06T04:49:46;75.70;;;28.80;;
77016;SDS011;65949;53.132;17.930;2023-04-06T04:52:16;77.50;;;29.20;;
77016;SDS011;65949;53.132;17.930;2023-04-06T04:54:51;68.10;;;26.40;;
77016;SDS011;65949;53.132;17.930;2023-04-06T04:57:23;66.80;;;24.70;;
77016;SDS011;65949;53.132;17.930;2023-04-06T04:59:49;45.80;;;18.00;;
77016;SDS011;65949;53.132;17.930;2023-04-06T05:02:18;40.20;;;13.90;;
77016;SDS011;65949;53.132;17.930;2023-04-06T05:04:52;35.30;;;15.10;;
77016;SDS011;65949;53.132;17.930;2023-04-06T05:07:22;58.60;;;19.40;;
77016;SDS011;65949;53.132;17.930;2023-04-06T05:09:49;55.40;;;20.10;;
77016;SDS011;65949;53.132;17.930;2023-04-06T05:12:16;54.20;;;18.70;;
77016;SDS011;65949;53.132;17.930;2023-04-06T05:14:58;57.20;;;18.60;;
77016;SDS011;65949;53.132;17.930;2023-04-06T05:17:25;60.30;;;20.20;;
77016;SDS011;65949;53.132;17.930;2023-04-06T05:19:52;50.10;;;19.20;;
77016;SDS011;65949;53.132;17.930;2023-04-06T05:22:22;58.50;;;19.20;;
77016;SDS011;65949;53.132;17.930;2023-04-06T05:24:56;62.90;;;22.00;;
77016;SDS011;65949;53.132;17.930;2023-04-06T05:27:22;64.30;;;20.10;;
77016;SDS011;65949;53.132;17.930;2023-04-06T05:29:49;56.50;;;18.90;;
77016;SDS011;65949;53.132;17.930;2023-04-06T05:32:17;60.70;;;20.00;;
77016;SDS011;65949;53.132;17.930;2023-04-06T05:34:48;60.30;;;22.40;;
77016;SDS011;65949;53.132;17.930;2023-04-06T05:37:16;61.20;;;19.80;;
77016;SDS011;65949;53.132;17.930;2023-04-06T05:39:43;51.90;;;21.10;;
77016;SDS011;65949;53.132;17.930;2023-04-06T05:42:10;57.40;;;20.00;;
77016;SDS011;65949;53.132;17.930;2023-04-06T05:44:48;46.60;;;17.30;;
77016;SDS011;65949;53.132;17.930;2023-04-06T05:47:15;51.90;;;18.60;;
77016;SDS011;65949;53.132;17.930;2023-04-06T05:49:43;55.40;;;21.30;;
77016;SDS011;65949;53.132;17.930;2023-04-06T05:52:13;55.90;;;22.70;;
77016;SDS011;65949;53.132;17.930;2023-04-06T05:54:43;107.50;;;33.50;;
77016;SDS011;65949;53.132;17.930;2023-04-06T05:57:09;90.40;;;31.60;;
77016;SDS011;65949;53.132;17.930;2023-04-06T05:59:36;67.00;;;26.20;;
77016;SDS011;65949;53.132;17.930;2023-04-06T06:02:03;56.60;;;20.30;;
77016;SDS011;65949;53.132;17.930;2023-04-06T06:04:31;55.90;;;19.60;;
77016;SDS011;65949;53.132;17.930;2023-04-06T06:06:58;68.20;;;23.60;;
77016;SDS011;65949;53.132;17.930;2023-04-06T06:09:32;60.10;;;25.40;;
77016;SDS011;65949;53.132;17.930;2023-04-06T06:12:13;53.80;;;19.90;;
77016;SDS011;65949;53.132;17.930;2023-04-06T06:14:39;63.40;;;21.10;;
77016;SDS011;65949;53.132;17.930;2023-04-06T06:17:07;44.10;;;18.40;;
77016;SDS011;65949;53.132;17.930;2023-04-06T06:19:34;51.80;;;21.10;;
77016;SDS011;65949;53.132;17.930;2023-04-06T06:22:02;48.50;;;18.90;;
77016;SDS011;65949;53.132;17.930;2023-04-06T06:24:29;55.00;;;19.40;;
77016;SDS011;65949;53.132;17.930;2023-04-06T06:26:58;55.20;;;19.90;;
77016;SDS011;65949;53.132;17.930;2023-04-06T06:29:26;47.80;;;20.60;;
77016;SDS011;65949;53.132;17.930;2023-04-06T06:31:52;57.10;;;22.50;;
77016;SDS011;65949;53.132;17.930;2023-04-06T06:34:19;54.10;;;20.50;;
77016;SDS011;65949;53.132;17.930;2023-04-06T06:36:46;50.50;;;20.60;;
77016;SDS011;65949;53.132;17.930;2023-04-06T06:39:13;42.70;;;17.60;;
77016;SDS011;65949;53.132;17.930;2023-04-06T06:41:40;50.20;;;20.40;;
77016;SDS011;65949;53.132;17.930;2023-04-06T06:44:07;59.30;;;22.20;;
77016;SDS011;65949;53.132;17.930;2023-04-06T06:46:34;48.60;;;21.10;;
77016;SDS011;65949;53.132;17.930;2023-04-06T06:49:01;50.20;;;20.30;;
77016;SDS011;65949;53.132;17.930;2023-04-06T06:51:29;48.30;;;20.70;;
77016;SDS011;65949;53.132;17.930;2023-04-06T06:53:55;49.00;;;20.20;;
77016;SDS011;65949;53.132;17.930;2023-04-06T06:56:22;43.70;;;18.00;;
77016;SDS011;65949;53.132;17.930;2023-04-06T06:58:49;38.90;;;18.40;;
77016;SDS011;65949;53.132;17.930;2023-04-06T07:01:16;36.80;;;15.90;;
77016;SDS011;65949;53.132;17.930;2023-04-06T07:03:43;39.70;;;17.40;;
77016;SDS011;65949;53.132;17.930;2023-04-06T07:06:10;38.10;;;15.90;;
77016;SDS011;65949;53.132;17.930;2023-04-06T07:08:39;35.40;;;15.00;;
77016;SDS011;65949;53.132;17.930;2023-04-06T07:11:06;35.10;;;15.60;;
77016;SDS011;65949;53.132;17.930;2023-04-06T07:13:33;30.00;;;13.60;;
77016;SDS011;65949;53.132;17.930;2023-04-06T07:16:00;30.20;;;15.30;;
77016;SDS011;65949;53.132;17.930;2023-04-06T07:18:27;25.70;;;12.40;;
77016;SDS011;65949;53.132;17.930;2023-04-06T07:20:54;31.20;;;12.90;;
77016;SDS011;65949;53.132;17.930;2023-04-06T07:23:21;46.60;;;19.90;;
77016;SDS011;65949;53.132;17.930;2023-04-06T07:25:47;44.80;;;18.40;;
77016;SDS011;65949;53.132;17.930;2023-04-06T07:28:14;47.90;;;18.60;;
77016;SDS011;65949;53.132;17.930;2023-04-06T07:30:41;37.50;;;16.00;;
77016;SDS011;65949;53.132;17.930;2023-04-06T07:33:09;39.90;;;15.10;;
77016;SDS011;65949;53.132;17.930;2023-04-06T07:35:36;43.00;;;15.90;;
77016;SDS011;65949;53.132;17.930;2023-04-06T07:38:04;35.80;;;13.30;;
77016;SDS011;65949;53.132;17.930;2023-04-06T07:40:31;21.30;;;9.90;;
77016;SDS011;65949;53.132;17.930;2023-04-06T07:42:59;29.10;;;11.20;;
77016;SDS011;65949;53.132;17.930;2023-04-06T07:45:26;32.90;;;12.80;;
77016;SDS011;65949;53.132;17.930;2023-04-06T07:47:53;34.40;;;13.40;;
77016;SDS011;65949;53.132;17.930;2023-04-06T07:50:20;71.90;;;21.00;;
77016;SDS011;65949;53.132;17.930;2023-04-06T07:52:47;60.10;;;19.80;;
77016;SDS011;65949;53.132;17.930;2023-04-06T07:55:15;51.60;;;18.90;;
77016;SDS011;65949;53.132;17.930;2023-04-06T07:57:41;39.40;;;15.30;;
77016;SDS011;65949;53.132;17.930;2023-04-06T08:00:08;21.70;;;9.40;;
77016;SDS011;65949;53.132;17.930;2023-04-06T08:02:39;25.80;;;10.00;;
77016;SDS011;65949;53.132;17.930;2023-04-06T08:05:05;14.80;;;7.10;;
77016;SDS011;65949;53.132;17.930;2023-04-06T08:07:33;61.90;;;20.50;;
77016;SDS011;65949;53.132;17.930;2023-04-06T08:10:00;26.00;;;9.20;;
77016;SDS011;65949;53.132;17.930;2023-04-06T08:12:26;22.40;;;9.40;;
77016;SDS011;65949;53.132;17.930;2023-04-06T08:14:53;26.50;;;9.80;;
77016;SDS011;65949;53.132;17.930;2023-04-06T08:17:19;18.00;;;7.70;;
77016;SDS011;65949;53.132;17.930;2023-04-06T08:19:46;20.30;;;8.50;;
77016;SDS011;65949;53.132;17.930;2023-04-06T08:22:13;14.90;;;6.30;;
77016;SDS011;65949;53.132;17.930;2023-04-06T08:24:39;18.40;;;7.40;;
77016;SDS011;65949;53.132;17.930;2023-04-06T08:27:06;10.20;;;4.50;;
77016;SDS011;65949;53.132;17.930;2023-04-06T08:29:33;22.00;;;18.50;;
77016;SDS011;65949;53.132;17.930;2023-04-06T08:32:00;10.80;;;5.60;;
77016;SDS011;65949;53.132;17.930;2023-04-06T08:34:32;9.80;;;4.00;;
77016;SDS011;65949;53.132;17.930;2023-04-06T08:36:59;8.10;;;3.20;;
77016;SDS011;65949;53.132;17.930;2023-04-06T08:39:27;19.50;;;7.80;;
77016;SDS011;65949;53.132;17.930;2023-04-06T08:41:54;9.10;;;3.50;;
77016;SDS011;65949;53.132;17.930;2023-04-06T08:44:26;12.50;;;5.20;;
77016;SDS011;65949;53.132;17.930;2023-04-06T08:46:53;8.20;;;3.10;;
77016;SDS011;65949;53.132;17.930;2023-04-06T08:49:20;9.00;;;3.80;;
77016;SDS011;65949;53.132;17.930;2023-04-06T08:51:48;14.00;;;4.30;;
77016;SDS011;65949;53.132;17.930;2023-04-06T08:54:16;19.40;;;6.10;;
77016;SDS011;65949;53.132;17.930;2023-04-06T08:56:42;11.70;;;5.10;;
77016;SDS011;65949;53.132;17.930;2023-04-06T08:59:09;8.70;;;3.80;;
77016;SDS011;65949;53.132;17.930;2023-04-06T09:01:38;8.80;;;3.80;;
77016;SDS011;65949;53.132;17.930;2023-04-06T09:04:07;10.90;;;3.80;;
77016;SDS011;65949;53.132;17.930;2023-04-06T09:06:37;10.10;;;3.40;;
77016;SDS011;65949;53.132;17.930;2023-04-06T09:09:04;9.60;;;3.70;;
77016;SDS011;65949;53.132;17.930;2023-04-06T09:11:50;9.30;;;4.30;;
77016;SDS011;65949;53.132;17.930;2023-04-06T09:14:32;10.30;;;3.90;;
77016;SDS011;65949;53.132;17.930;2023-04-06T09:17:00;14.30;;;4.60;;
77016;SDS011;65949;53.132;17.930;2023-04-06T09:19:27;13.70;;;5.20;;
77016;SDS011;65949;53.132;17.930;2023-04-06T09:22:03;18.20;;;7.00;;
77016;SDS011;65949;53.132;17.930;2023-04-06T09:24:44;17.40;;;5.10;;
77016;SDS011;65949;53.132;17.930;2023-04-06T09:27:12;13.30;;;5.30;;
77016;SDS011;65949;53.132;17.930;2023-04-06T09:29:40;12.20;;;5.60;;
77016;SDS011;65949;53.132;17.930;2023-04-06T09:32:10;11.00;;;4.30;;
77016;SDS011;65949;53.132;17.930;2023-04-06T09:34:38;25.00;;;11.40;;
77016;SDS011;65949;53.132;17.930;2023-04-06T09:37:14;12.40;;;4.90;;
77016;SDS011;65949;53.132;17.930;2023-04-06T09:39:42;22.70;;;8.40;;
77016;SDS011;65949;53.132;17.930;2023-04-06T09:42:09;30.60;;;9.60;;
77016;SDS011;65949;53.132;17.930;2023-04-06T09:44:36;15.60;;;5.30;;
77016;SDS011;65949;53.132;17.930;2023-04-06T09:47:03;9.90;;;3.40;;
77016;SDS011;65949;53.132;17.930;2023-04-06T09:49:34;54.00;;;15.40;;
77016;SDS011;65949;53.132;17.930;2023-04-06T09:52:02;23.40;;;8.30;;
77016;SDS011;65949;53.132;17.930;2023-04-06T09:54:33;10.20;;;4.30;;
77016;SDS011;65949;53.132;17.930;2023-04-06T10:07:44;10.10;;;4.10;;
77016;SDS011;65949;53.132;17.930;2023-04-06T10:10:11;10.00;;;4.50;;
77016;SDS011;65949;53.132;17.930;2023-04-06T10:12:40;39.10;;;5.30;;
77016;SDS011;65949;53.132;17.930;2023-04-06T10:15:08;13.00;;;4.00;;
77016;SDS011;65949;53.132;17.930;2023-04-06T10:17:36;9.20;;;3.00;;
77016;SDS011;65949;53.132;17.930;2023-04-06T10:20:16;10.80;;;5.00;;
77016;SDS011;65949;53.132;17.930;2023-04-06T10:22:51;10.20;;;4.40;;
77016;SDS011;65949;53.132;17.930;2023-04-06T10:25:26;10.50;;;3.40;;
77016;SDS011;65949;53.132;17.930;2023-04-06T10:30:32;10.50;;;3.50;;
77016;SDS011;65949;53.132;17.930;2023-04-06T10:33:00;8.20;;;3.60;;
77016;SDS011;65949;53.132;17.930;2023-04-06T10:35:36;11.00;;;3.70;;
77016;SDS011;65949;53.132;17.930;2023-04-06T10:38:04;12.10;;;4.30;;
77016;SDS011;65949;53.132;17.930;2023-04-06T10:40:31;8.90;;;3.60;;
77016;SDS011;65949;53.132;17.930;2023-04-06T10:43:08;13.70;;;5.30;;
77016;SDS011;65949;53.132;17.930;2023-04-06T10:45:39;14.50;;;7.50;;
77016;SDS011;65949;53.132;17.930;2023-04-06T10:48:17;12.80;;;4.80;;
77016;SDS011;65949;53.132;17.930;2023-04-06T10:50:46;7.70;;;2.60;;
77016;SDS011;65949;53.132;17.930;2023-04-06T10:53:24;12.30;;;3.70;;
77016;SDS011;65949;53.132;17.930;2023-04-06T10:55:54;8.90;;;2.80;;
77016;SDS011;65949;53.132;17.930;2023-04-06T10:58:26;8.30;;;3.20;;
77016;SDS011;65949;53.132;17.930;2023-04-06T11:00:54;10.10;;;3.60;;
77016;SDS011;65949;53.132;17.930;2023-04-06T11:03:22;11.00;;;4.50;;
77016;SDS011;65949;53.132;17.930;2023-04-06T11:05:49;9.00;;;3.50;;
77016;SDS011;65949;53.132;17.930;2023-04-06T11:11:04;9.90;;;3.50;;
77016;SDS011;65949;53.132;17.930;2023-04-06T11:13:54;8.20;;;3.00;;
77016;SDS011;65949;53.132;17.930;2023-04-06T11:16:31;7.20;;;2.90;;
77016;SDS011;65949;53.132;17.930;2023-04-06T11:19:00;11.40;;;4.40;;
77016;SDS011;65949;53.132;17.930;2023-04-06T11:21:38;9.00;;;4.70;;
77016;SDS011;65949;53.132;17.930;2023-04-06T11:24:25;9.90;;;3.20;;
77016;SDS011;65949;53.132;17.930;2023-04-06T11:26:53;11.00;;;4.90;;
77016;SDS011;65949;53.132;17.930;2023-04-06T11:29:23;24.90;;;8.90;;
77016;SDS011;65949;53.132;17.930;2023-04-06T11:31:52;11.70;;;4.40;;
77016;SDS011;65949;53.132;17.930;2023-04-06T11:34:24;12.00;;;2.70;;
77016;SDS011;65949;53.132;17.930;2023-04-06T11:36:55;10.40;;;3.10;;
77016;SDS011;65949;53.132;17.930;2023-04-06T11:39:27;13.90;;;3.00;;
77016;SDS011;65949;53.132;17.930;2023-04-06T11:42:01;23.30;;;3.40;;
77016;SDS011;65949;53.132;17.930;2023-04-06T11:44:35;9.50;;;3.20;;
77016;SDS011;65949;53.132;17.930;2023-04-06T11:47:05;10.70;;;4.00;;
77016;SDS011;65949;53.132;17.930;2023-04-06T11:49:37;6.40;;;2.30;;
77016;SDS011;65949;53.132;17.930;2023-04-06T11:52:15;6.80;;;2.50;;
77016;SDS011;65949;53.132;17.930;2023-04-06T11:54:47;7.20;;;2.60;;
77016;SDS011;65949;53.132;17.930;2023-04-06T11:57:16;8.30;;;2.60;;
77016;SDS011;65949;53.132;17.930;2023-04-06T11:59:44;7.00;;;2.80;;
77016;SDS011;65949;53.132;17.930;2023-04-06T12:02:11;15.40;;;4.90;;
77016;SDS011;65949;53.132;17.930;2023-04-06T12:04:38;18.00;;;5.60;;
77016;SDS011;65949;53.132;17.930;2023-04-06T12:07:05;47.60;;;8.00;;
77016;SDS011;65949;53.132;17.930;2023-04-06T12:09:31;5.00;;;1.60;;
77016;SDS011;65949;53.132;17.930;2023-04-06T12:11:58;9.40;;;3.40;;
77016;SDS011;65949;53.132;17.930;2023-04-06T12:14:25;8.50;;;3.00;;
77016;SDS011;65949;53.132;17.930;2023-04-06T12:16:51;9.50;;;2.90;;
77016;SDS011;65949;53.132;17.930;2023-04-06T12:19:18;8.30;;;2.10;;
77016;SDS011;65949;53.132;17.930;2023-04-06T12:21:45;11.80;;;4.80;;
77016;SDS011;65949;53.132;17.930;2023-04-06T12:24:11;12.60;;;4.50;;
77016;SDS011;65949;53.132;17.930;2023-04-06T12:26:38;10.80;;;4.00;;
77016;SDS011;65949;53.132;17.930;2023-04-06T12:29:04;12.80;;;4.50;;
77016;SDS011;65949;53.132;17.930;2023-04-06T12:31:36;13.90;;;4.20;;
77016;SDS011;65949;53.132;17.930;2023-04-06T12:34:05;8.50;;;3.20;;
77016;SDS011;65949;53.132;17.930;2023-04-06T12:36:31;9.50;;;3.30;;
77016;SDS011;65949;53.132;17.930;2023-04-06T12:38:59;13.10;;;3.80;;
77016;SDS011;65949;53.132;17.930;2023-04-06T12:41:27;8.80;;;2.90;;
77016;SDS011;65949;53.132;17.930;2023-04-06T12:43:54;11.40;;;3.20;;
77016;SDS011;65949;53.132;17.930;2023-04-06T12:46:22;32.80;;;4.00;;
77016;SDS011;65949;53.132;17.930;2023-04-06T12:48:50;10.30;;;3.30;;
77016;SDS011;65949;53.132;17.930;2023-04-06T12:51:19;8.60;;;3.30;;
77016;SDS011;65949;53.132;17.930;2023-04-06T12:53:46;8.30;;;2.80;;
77016;SDS011;65949;53.132;17.930;2023-04-06T12:56:14;8.40;;;2.90;;
77016;SDS011;65949;53.132;17.930;2023-04-06T12:58:43;11.50;;;3.60;;
77016;SDS011;65949;53.132;17.930;2023-04-06T13:01:11;12.00;;;2.50;;
77016;SDS011;65949;53.132;17.930;2023-04-06T13:03:39;7.20;;;3.10;;
77016;SDS011;65949;53.132;17.930;2023-04-06T13:06:06;8.60;;;3.10;;
77016;SDS011;65949;53.132;17.930;2023-04-06T13:08:37;8.70;;;2.80;;
77016;SDS011;65949;53.132;17.930;2023-04-06T13:11:05;10.10;;;3.10;;
77016;SDS011;65949;53.132;17.930;2023-04-06T13:13:35;8.30;;;3.00;;
77016;SDS011;65949;53.132;17.930;2023-04-06T13:16:06;10.20;;;3.00;;
77016;SDS011;65949;53.132;17.930;2023-04-06T13:18:34;7.70;;;2.70;;
77016;SDS011;65949;53.132;17.930;2023-04-06T13:21:04;7.70;;;2.40;;
77016;SDS011;65949;53.132;17.930;2023-04-06T13:23:32;9.50;;;3.20;;
77016;SDS011;65949;53.132;17.930;2023-04-06T13:26:00;6.60;;;2.40;;
77016;SDS011;65949;53.132;17.930;2023-04-06T13:28:33;13.90;;;6.30;;
77016;SDS011;65949;53.132;17.930;2023-04-06T13:31:01;9.20;;;3.20;;
77016;SDS011;65949;53.132;17.930;2023-04-06T13:33:29;8.10;;;3.50;;
77016;SDS011;65949;53.132;17.930;2023-04-06T13:35:56;20.20;;;3.80;;
77016;SDS011;65949;53.132;17.930;2023-04-06T13:38:24;10.30;;;3.70;;
77016;SDS011;65949;53.132;17.930;2023-04-06T13:40:51;12.80;;;5.10;;
77016;SDS011;65949;53.132;17.930;2023-04-06T13:43:18;12.30;;;4.60;;
77016;SDS011;65949;53.132;17.930;2023-04-06T13:45:53;15.90;;;5.00;;
77016;SDS011;65949;53.132;17.930;2023-04-06T13:48:25;9.60;;;3.80;;
77016;SDS011;65949;53.132;17.930;2023-04-06T13:50:52;9.20;;;4.30;;
77016;SDS011;65949;53.132;17.930;2023-04-06T13:53:19;16.30;;;4.10;;
77016;SDS011;65949;53.132;17.930;2023-04-06T13:55:55;10.00;;;3.90;;
77016;SDS011;65949;53.132;17.930;2023-04-06T13:58:22;39.20;;;5.20;;
77016;SDS011;65949;53.132;17.930;2023-04-06T14:04:07;8.30;;;2.90;;
77016;SDS011;65949;53.132;17.930;2023-04-06T14:06:33;15.10;;;3.70;;
77016;SDS011;65949;53.132;17.930;2023-04-06T14:09:00;18.50;;;4.50;;
77016;SDS011;65949;53.132;17.930;2023-04-06T14:11:27;10.20;;;4.00;;
77016;SDS011;65949;53.132;17.930;2023-04-06T14:13:54;11.50;;;4.20;;
77016;SDS011;65949;53.132;17.930;2023-04-06T14:16:22;8.20;;;3.40;;
77016;SDS011;65949;53.132;17.930;2023-04-06T14:18:49;17.90;;;5.60;;
77016;SDS011;65949;53.132;17.930;2023-04-06T14:21:17;12.90;;;4.90;;
77016;SDS011;65949;53.132;17.930;2023-04-06T14:23:44;11.80;;;3.80;;
77016;SDS011;65949;53.132;17.930;2023-04-06T14:26:12;11.20;;;5.40;;
77016;SDS011;65949;53.132;17.930;2023-04-06T14:28:39;11.10;;;4.00;;
77016;SDS011;65949;53.132;17.930;2023-04-06T14:31:10;9.90;;;4.40;;
77016;SDS011;65949;53.132;17.930;2023-04-06T14:33:39;11.70;;;4.40;;
77016;SDS011;65949;53.132;17.930;2023-04-06T14:36:06;12.10;;;4.20;;
77016;SDS011;65949;53.132;17.930;2023-04-06T14:38:34;9.20;;;3.70;;
77016;SDS011;65949;53.132;17.930;2023-04-06T14:41:03;10.70;;;5.00;;
77016;SDS011;65949;53.132;17.930;2023-04-06T14:43:30;12.10;;;4.60;;
77016;SDS011;65949;53.132;17.930;2023-04-06T14:46:00;13.40;;;3.80;;